Pajarito, New Mexico
Current Conditions -  °F | °C
As of 8:35 PM on Saturday 24 Jan 2015 (Local Time) from KLAM Reporting Station
Clear Clear  
Wind Chill: 29°   Ceiling: Unl
Heat Index: 34°   Visibility: 10mi
Dew Point: 21°   Wind: 6mph
Humidity: 60%   Direction: 10°N
Pressure: 30.23"   Gusts: NA
Location:  35.9775°N, 106.158°W
Report Text: KLAM 250335Z AUTO 01005KT 10SM CLR 01/M06 A3023 RMK AO2 T00121059
Loading
Personal Weather Stations






























Interactive Weather Map New forecast layout! Learn more

10-Day Weather Forecast

Advertisements
Track Severe Weather on mobile